Time;durP1;ratioP1;P1;durP2;ratioP2;P2;SDS_P1;SDS_P2;PMS_P1;PMS_P2;Temp;Humidity;BMP_temperature;BMP_pressure;BME280_temperature;BME280_humidity;BME280_pressure;Samples;Min_cycle;Max_cycle;Signal;HPM_P1;HPM_P2
2022/12/16 00:01:25;;;;;;;8.15;6.55;;;16.50;52.60;;;;;;10445363;28;20107;-57
2022/12/16 00:06:31;;;;;;;8.23;6.45;;;16.40;52.60;;;;;;10404517;28;20491;-57
2022/12/16 00:11:32;;;;;;;6.60;5.90;;;16.40;52.90;;;;;;10414920;28;20025;-57
2022/12/16 00:16:32;;;;;;;7.88;6.72;;;16.30;52.80;;;;;;10440155;28;20041;-57
2022/12/16 00:21:33;;;;;;;8.25;6.63;;;16.30;52.80;;;;;;10445441;28;20017;-57
2022/12/16 00:26:34;;;;;;;8.85;6.32;;;16.40;52.70;;;;;;10445421;28;20449;-57
2022/12/16 00:31:34;;;;;;;9.25;6.47;;;16.30;52.70;;;;;;10409613;28;20017;-57
2022/12/16 00:36:35;;;;;;;7.35;5.35;;;16.40;52.80;;;;;;10445211;28;20191;-57
2022/12/16 00:41:36;;;;;;;6.43;5.55;;;16.40;52.80;;;;;;10436457;28;20044;-58
2022/12/16 00:46:36;;;;;;;8.02;5.63;;;16.30;52.80;;;;;;10446219;28;20057;-57
2022/12/16 00:51:37;;;;;;;8.13;6.00;;;16.30;52.80;;;;;;10420375;28;20631;-57
2022/12/16 00:56:38;;;;;;;8.93;5.22;;;16.40;52.90;;;;;;10402978;28;20516;-57
2022/12/16 01:01:38;;;;;;;5.85;5.07;;;16.30;52.90;;;;;;10395374;28;20431;-57
2022/12/16 01:06:39;;;;;;;7.90;5.65;;;16.30;52.90;;;;;;10403678;28;20151;-57
2022/12/16 01:11:40;;;;;;;7.20;6.10;;;16.40;52.90;;;;;;10438618;28;20104;-57
2022/12/16 01:16:40;;;;;;;8.25;6.10;;;16.30;52.80;;;;;;10444004;28;20130;-56
2022/12/16 01:21:41;;;;;;;7.15;5.95;;;16.40;52.60;;;;;;10433411;28;20611;-57
2022/12/16 01:26:42;;;;;;;9.02;7.28;;;16.30;52.60;;;;;;10427317;28;20542;-56
2022/12/16 01:31:42;;;;;;;7.60;5.65;;;16.40;52.50;;;;;;10435012;28;20116;-56
2022/12/16 01:36:43;;;;;;;7.53;6.30;;;16.40;52.60;;;;;;10420233;28;20116;-57
2022/12/16 01:41:44;;;;;;;7.00;6.05;;;16.40;52.60;;;;;;10423471;28;20461;-58
2022/12/16 01:46:50;;;;;;;11.65;6.35;;;16.40;52.40;;;;;;10411769;28;20053;-57
2022/12/16 01:51:53;;;;;;;7.55;6.63;;;16.40;52.30;;;;;;10401113;28;20087;-57
2022/12/16 01:57:00;;;;;;;6.93;5.20;;;16.40;52.30;;;;;;10429058;28;20116;-57
2022/12/16 02:02:02;;;;;;;7.85;6.30;;;16.40;52.30;;;;;;10434615;28;20021;-56
2022/12/16 02:07:03;;;;;;;8.45;5.90;;;16.40;52.20;;;;;;10446276;28;20373;-57
2022/12/16 02:12:51;;;;;;;7.65;6.05;;;16.40;52.20;;;;;;10413270;28;20116;-55
2022/12/16 02:18:21;;;;;;;6.75;5.55;;;16.30;52.10;;;;;;10433728;28;20175;-57
2022/12/16 02:23:36;;;;;;;8.43;7.10;;;16.40;52.10;;;;;;10429084;28;20037;-55
2022/12/16 02:29:31;;;;;;;7.38;6.38;;;16.40;52.10;;;;;;10437568;28;20103;-56
2022/12/16 02:35:07;;;;;;;10.35;7.20;;;16.40;52.10;;;;;;10409990;28;20064;-57
2022/12/16 02:40:27;;;;;;;7.55;6.75;;;16.40;51.90;;;;;;10417620;28;20029;-57
2022/12/16 02:45:30;;;;;;;8.70;6.63;;;16.30;52.10;;;;;;10426839;28;20090;-57
2022/12/16 02:50:39;;;;;;;7.50;5.75;;;16.30;52.10;;;;;;10422573;28;20021;-57
2022/12/16 02:56:12;;;;;;;6.90;5.85;;;16.40;52.00;;;;;;10417679;28;20071;-57
2022/12/16 03:01:34;;;;;;;6.07;5.47;;;16.40;51.90;;;;;;10423608;28;20029;-56
2022/12/16 03:06:38;;;;;;;7.38;5.75;;;16.40;51.80;;;;;;10440960;28;20067;-57
2022/12/16 03:11:42;;;;;;;8.57;5.93;;;16.40;51.90;;;;;;10405344;28;20021;-57
2022/12/16 03:16:45;;;;;;;6.50;5.60;;;16.40;51.80;;;;;;10447330;28;20053;-57
2022/12/16 03:22:12;;;;;;;6.88;6.00;;;16.40;51.80;;;;;;10448351;28;20025;-56
2022/12/16 03:27:29;;;;;;;7.18;5.78;;;16.40;51.80;;;;;;10434211;28;20026;-56
2022/12/16 03:32:45;;;;;;;7.72;6.07;;;16.40;51.70;;;;;;10438410;28;20034;-57
2022/12/16 03:37:49;;;;;;;7.55;5.97;;;16.40;51.70;;;;;;10428899;28;20029;-57
2022/12/16 03:42:52;;;;;;;7.13;5.63;;;16.40;51.70;;;;;;10447387;28;20052;-57
2022/12/16 03:47:56;;;;;;;6.85;5.53;;;16.40;51.80;;;;;;10424163;28;20053;-56
2022/12/16 03:52:58;;;;;;;6.97;5.80;;;16.30;51.90;;;;;;10404627;28;20120;-57
2022/12/16 03:57:58;;;;;;;8.40;5.93;;;16.30;52.00;;;;;;10431978;28;20123;-56
2022/12/16 04:02:59;;;;;;;7.03;6.32;;;16.20;52.00;;;;;;10427533;28;20380;-57
2022/12/16 04:08:00;;;;;;;8.57;5.40;;;16.30;51.80;;;;;;10404823;28;20064;-57
2022/12/16 04:29:11;;;;;;;8.20;6.25;;;16.40;51.60;;;;;;10446141;28;20119;-58
2022/12/16 04:34:24;;;;;;;7.97;5.78;;;16.40;51.60;;;;;;10437155;28;20017;-58
